Time;durP1;ratioP1;P1;durP2;ratioP2;P2;SDS_P1;SDS_P2;PMS_P1;PMS_P2;Temp;Humidity;BMP_temperature;BMP_pressure;BME280_temperature;BME280_humidity;BME280_pressure;Samples;Min_cycle;Max_cycle;Signal;HPM_P1;HPM_P2
2023/07/04 00:01:00;;;;;;;3.97;1.48;;;;;;;15.83;86.71;101039.22;4992131;28;20050;-77
2023/07/04 00:03:27;;;;;;;5.45;1.77;;;;;;;15.81;86.35;101051.66;4997145;28;20038;-77
2023/07/04 00:05:54;;;;;;;4.43;1.27;;;;;;;15.78;86.16;101062.41;4989190;28;20042;-77
2023/07/04 00:08:21;;;;;;;6.18;2.20;;;;;;;15.76;86.11;101055.50;4985323;28;20229;-78
2023/07/04 00:10:47;;;;;;;6.88;1.50;;;;;;;15.72;85.99;101071.50;4984553;28;20038;-77
2023/07/04 00:13:13;;;;;;;2.17;1.05;;;;;;;15.69;85.70;101070.81;4980598;28;20329;-78
2023/07/04 00:15:53;;;;;;;3.03;1.10;;;;;;;15.65;85.29;101067.50;4981662;28;20080;-78
2023/07/04 00:18:20;;;;;;;2.22;1.10;;;;;;;15.63;85.36;101068.56;4984890;28;20291;-78
2023/07/04 00:20:55;;;;;;;1.20;0.80;;;;;;;15.59;85.27;101072.28;4986262;28;20044;-77
2023/07/04 00:23:24;;;;;;;2.45;1.08;;;;;;;15.57;85.35;101074.16;4977962;28;20035;-77
2023/07/04 00:25:49;;;;;;;3.95;1.20;;;;;;;15.55;85.05;101079.53;4990558;28;20034;-77
2023/07/04 00:28:15;;;;;;;1.98;1.15;;;;;;;15.52;84.92;101085.84;4974644;28;20026;-77
2023/07/04 00:30:42;;;;;;;1.98;1.10;;;;;;;15.51;84.97;101083.28;4995053;28;20053;-77
2023/07/04 00:33:07;;;;;;;1.88;1.05;;;;;;;15.49;85.35;101072.81;4994697;28;20033;-77
2023/07/04 00:35:33;;;;;;;2.58;1.23;;;;;;;15.49;85.06;101078.09;4998817;28;20062;-77
2023/07/04 00:37:58;;;;;;;2.05;0.98;;;;;;;15.47;84.96;101074.72;4996820;28;20308;-77
2023/07/04 00:40:26;;;;;;;2.38;1.10;;;;;;;15.46;85.00;101077.44;4977757;28;20333;-77
2023/07/04 00:42:56;;;;;;;2.03;0.90;;;;;;;15.43;85.04;101086.38;4991254;28;20100;-78
2023/07/04 00:45:23;;;;;;;3.60;1.20;;;;;;;15.43;84.89;101090.81;4973572;28;20353;-78
2023/07/04 00:48:00;;;;;;;1.50;0.95;;;;;;;15.40;84.53;101081.28;4970656;28;20039;-78
2023/07/04 00:50:35;;;;;;;2.38;1.20;;;;;;;15.38;84.73;101080.50;4991507;28;20048;-78
2023/07/04 00:53:04;;;;;;;2.25;0.90;;;;;;;15.38;84.42;101075.22;4996529;28;20386;-78
2023/07/04 00:55:32;;;;;;;3.28;1.08;;;;;;;15.36;84.56;101067.41;5009809;28;20042;-78
2023/07/04 00:57:58;;;;;;;2.08;1.00;;;;;;;15.33;84.38;101067.59;5016362;28;20450;-78
2023/07/04 01:03:04;;;;;;;7.43;1.10;;;;;;;15.28;84.30;101063.50;4875115;28;20060;-77
2023/07/04 01:05:57;;;;;;;3.47;1.23;;;;;;;15.26;84.33;101060.09;4978694;28;20320;-77
2023/07/04 01:08:37;;;;;;;4.57;0.98;;;;;;;15.24;84.46;101061.97;4996065;28;20033;-77
2023/07/04 01:11:07;;;;;;;3.83;1.05;;;;;;;15.22;84.64;101053.28;4990792;28;20060;-78
2023/07/04 01:13:38;;;;;;;1.90;0.80;;;;;;;15.20;84.59;101057.81;4994621;28;20046;-77
2023/07/04 01:16:10;;;;;;;2.58;1.05;;;;;;;15.19;84.80;101058.75;4993853;28;20304;-77
2023/07/04 01:18:37;;;;;;;1.73;0.90;;;;;;;15.15;84.94;101053.66;4996252;28;20068;-77
2023/07/04 01:21:05;;;;;;;1.80;0.80;;;;;;;15.12;84.95;101064.38;4995875;28;20333;-77
2023/07/04 01:23:49;;;;;;;3.92;1.13;;;;;;;15.11;84.74;101057.38;4996167;28;20229;-77
2023/07/04 01:26:44;;;;;;;2.13;1.15;;;;;;;15.09;85.13;101053.13;4996171;28;20104;-77
2023/07/04 01:29:11;;;;;;;3.00;1.02;;;;;;;15.06;84.82;101059.44;4995757;28;20030;-78
2023/07/04 01:31:37;;;;;;;2.75;1.05;;;;;;;15.05;84.91;101051.63;4996232;28;20038;-77
2023/07/04 01:34:04;;;;;;;2.88;1.25;;;;;;;15.04;85.24;101058.66;5003197;28;20030;-77
2023/07/04 01:36:34;;;;;;;2.65;1.25;;;;;;;15.01;84.84;101057.97;5015249;28;20030;-77
2023/07/04 01:39:00;;;;;;;3.08;1.17;;;;;;;15.01;85.27;101061.50;5011559;28;20311;-78
2023/07/04 01:41:26;;;;;;;1.67;0.90;;;;;;;15.01;85.00;101064.13;4978501;28;20032;-78
2023/07/04 01:44:05;;;;;;;2.92;1.02;;;;;;;15.00;85.02;101056.28;4995642;28;20113;-77
2023/07/04 01:46:31;;;;;;;;;;;;;;;14.99;85.12;101063.38;4996216;28;20046;-77
2023/07/04 01:48:57;;;;;;;5.43;1.65;;;;;;;14.97;85.13;101063.44;4995659;28;19917;-77
2023/07/04 01:51:26;;;;;;;2.78;1.15;;;;;;;14.95;85.30;101052.13;4994214;28;20109;-77
2023/07/04 01:53:52;;;;;;;1.77;1.15;;;;;;;14.93;85.13;101059.25;4994071;28;20097;-77
2023/07/04 01:56:17;;;;;;;1.63;1.10;;;;;;;14.89;85.59;101060.38;4994072;28;20206;-77
2023/07/04 01:58:42;;;;;;;2.90;1.30;;;;;;;14.89;85.68;101057.72;4994255;28;20105;-77
2023/07/04 02:01:08;;;;;;;2.10;1.10;;;;;;;14.89;85.67;101056.88;4995583;28;20034;-78
2023/07/04 02:03:34;;;;;;;3.78;0.98;;;;;;;14.88;85.57;101055.16;4999229;28;20065;-77
2023/07/04 02:06:00;;;;;;;2.58;1.08;;;;;;;14.86;85.64;101050.00;5014855;28;20364;-77
2023/07/04 02:08:26;;;;;;;1.42;0.85;;;;;;;14.85;85.73;101048.28;4997408;28;20275;-77
2023/07/04 02:10:51;;;;;;;1.15;0.90;;;;;;;14.84;85.57;101051.84;4995917;28;20038;-77
2023/07/04 02:13:17;;;;;;;2.03;0.95;;;;;;;14.84;85.92;101043.94;4996503;28;20030;-77
2023/07/04 02:15:42;;;;;;;2.47;1.10;;;;;;;14.85;85.76;101053.56;4995779;28;20072;-77
2023/07/04 02:18:07;;;;;;;2.80;1.02;;;;;;;14.86;86.09;101051.78;4994155;28;20244;-77
2023/07/04 02:20:33;;;;;;;2.58;1.10;;;;;;;14.87;86.04;101056.13;4995560;28;20224;-77
2023/07/04 02:22:58;;;;;;;2.67;1.23;;;;;;;14.86;85.83;101051.78;4994085;28;20026;-77
2023/07/04 02:25:23;;;;;;;1.27;1.00;;;;;;;14.85;85.93;101050.94;4994303;28;20273;-77
2023/07/04 02:27:49;;;;;;;1.98;1.13;;;;;;;14.85;85.95;101052.72;5007060;28;20290;-77
2023/07/04 02:30:14;;;;;;;2.00;0.98;;;;;;;14.85;85.73;101056.22;5019218;28;20044;-78
2023/07/04 02:32:40;;;;;;;2.47;1.23;;;;;;;14.84;85.90;101059.75;5018612;28;20050;-77
2023/07/04 02:35:05;;;;;;;1.77;1.00;;;;;;;14.82;86.18;101056.38;4997202;28;20030;-77
2023/07/04 02:37:31;;;;;;;3.67;1.17;;;;;;;14.82;86.20;101071.34;4998930;28;20252;-77
2023/07/04 02:39:57;;;;;;;2.55;1.23;;;;;;;14.81;86.30;101067.88;4998760;28;20164;-77
2023/07/04 02:42:22;;;;;;;2.78;1.25;;;;;;;14.80;86.34;101063.50;4981799;28;20038;-77
2023/07/04 02:44:47;;;;;;;1.55;0.90;;;;;;;14.80;86.32;101060.88;4999038;28;20052;-78
2023/07/04 02:47:13;;;;;;;2.28;1.30;;;;;;;14.82;85.83;101066.06;4996994;28;20375;-77
2023/07/04 02:49:38;;;;;;;3.60;0.88;;;;;;;14.80;85.84;101065.31;4998013;28;20041;-77
2023/07/04 02:52:05;;;;;;;2.83;1.17;;;;;;;14.79;86.18;101064.47;4998939;28;20344;-78
2023/07/04 02:54:30;;;;;;;1.95;1.27;;;;;;;14.77;85.94;101059.28;4997042;28;20325;-77
2023/07/04 02:56:56;;;;;;;5.03;1.50;;;;;;;14.75;86.08;101063.78;4998673;28;20034;-77
2023/07/04 02:59:21;;;;;;;1.92;1.15;;;;;;;14.74;85.95;101055.94;4998615;28;20046;-78
2023/07/04 03:01:47;;;;;;;3.92;1.10;;;;;;;14.72;85.76;101058.66;4998893;28;20049;-78
2023/07/04 03:04:13;;;;;;;4.20;1.25;;;;;;;14.72;85.93;101057.81;5005970;28;20263;-78
2023/07/04 03:06:39;;;;;;;5.80;1.20;;;;;;;14.71;85.73;101064.03;4998840;28;20041;-78
2023/07/04 03:09:04;;;;;;;4.50;1.42;;;;;;;14.69;85.41;101068.53;4992296;28;20030;-78
2023/07/04 03:11:30;;;;;;;1.85;0.98;;;;;;;14.68;85.46;101054.50;4972065;28;20047;-78
2023/07/04 03:13:55;;;;;;;1.08;0.90;;;;;;;14.65;85.57;101054.66;4958332;28;20031;-78
2023/07/04 03:16:21;;;;;;;3.22;1.20;;;;;;;14.65;85.37;101064.38;4976160;28;20061;-78
2023/07/04 03:18:46;;;;;;;2.85;1.00;;;;;;;14.64;85.36;101062.66;4965990;28;20042;-78
2023/07/04 03:21:11;;;;;;;2.13;1.00;;;;;;;14.61;85.04;101055.78;4959526;29;20098;-78
2023/07/04 03:23:37;;;;;;;3.08;1.23;;;;;;;14.59;84.90;101061.13;4959697;28;20046;-78
2023/07/04 03:26:03;;;;;;;3.90;1.00;;;;;;;14.56;85.00;101063.88;4959472;29;20102;-78
2023/07/04 03:28:28;;;;;;;1.58;1.00;;;;;;;14.56;84.92;101063.03;4969054;28;20069;-78
2023/07/04 03:30:54;;;;;;;2.67;1.15;;;;;;;14.54;85.00;101065.75;4978714;28;20139;-78
2023/07/04 03:33:20;;;;;;;3.08;0.90;;;;;;;14.53;84.87;101064.03;4976530;28;20311;-78
2023/07/04 03:35:45;;;;;;;2.08;1.52;;;;;;;14.53;84.84;101064.03;4959257;29;20039;-78
2023/07/04 03:38:11;;;;;;;1.98;1.00;;;;;;;14.52;84.69;101074.69;4958513;28;20051;-78
2023/07/04 03:40:36;;;;;;;2.35;0.90;;;;;;;14.51;84.81;101078.25;4959155;29;20043;-78
2023/07/04 03:43:01;;;;;;;2.05;0.88;;;;;;;14.50;84.59;101081.81;4959256;28;20035;-78
2023/07/04 03:45:27;;;;;;;2.25;0.98;;;;;;;14.48;85.00;101073.13;4958612;29;20039;-77
2023/07/04 03:47:52;;;;;;;2.30;1.15;;;;;;;14.46;84.70;101070.59;4959624;28;20327;-78
2023/07/04 03:50:17;;;;;;;3.35;1.13;;;;;;;14.44;84.75;101068.97;4959176;29;20046;-78
2023/07/04 03:52:44;;;;;;;2.63;1.02;;;;;;;14.42;84.62;101074.31;4957776;28;20126;-78
2023/07/04 03:55:09;;;;;;;4.80;1.10;;;;;;;14.39;84.76;101071.84;4958848;29;20114;-78
2023/07/04 03:57:35;;;;;;;3.17;1.02;;;;;;;14.38;85.04;101070.97;4957611;28;20031;-78
2023/07/04 04:00:00;;;;;;;2.10;1.23;;;;;;;14.37;84.64;101078.97;4957333;29;20042;-78
2023/07/04 04:02:25;;;;;;;2.40;1.00;;;;;;;14.35;84.68;101067.66;4958984;29;20031;-78
2023/07/04 04:04:51;;;;;;;3.50;1.33;;;;;;;14.34;84.74;101072.09;4963445;28;20061;-78
2023/07/04 04:07:16;;;;;;;4.43;1.30;;;;;;;14.32;84.94;101079.22;4958372;28;20360;-78
2023/07/04 04:09:42;;;;;;;5.15;1.23;;;;;;;14.30;84.94;101075.81;4958952;28;20115;-78
2023/07/04 04:12:09;;;;;;;2.05;1.10;;;;;;;14.29;84.90;101075.88;4979151;28;20225;-78
2023/07/04 04:14:35;;;;;;;2.40;1.15;;;;;;;14.30;85.28;101085.50;4997224;28;20061;-78
2023/07/04 04:17:01;;;;;;;1.98;0.93;;;;;;;14.29;85.20;101078.53;4997216;28;20030;-78
2023/07/04 04:19:27;;;;;;;2.22;0.98;;;;;;;14.28;84.91;101077.69;4997531;28;20068;-78
2023/07/04 04:21:53;;;;;;;1.30;0.95;;;;;;;14.29;84.99;101081.16;4995707;28;20031;-78
2023/07/04 04:24:20;;;;;;;3.22;1.00;;;;;;;14.29;85.24;101078.53;4997074;28;20380;-78
2023/07/04 04:26:47;;;;;;;3.05;1.48;;;;;;;14.28;85.13;101082.06;4997307;28;20058;-78
2023/07/04 04:29:13;;;;;;;1.15;0.90;;;;;;;14.30;85.16;101080.25;4997179;28;20052;-78
2023/07/04 04:31:39;;;;;;;2.65;1.08;;;;;;;14.29;85.23;101071.47;4997104;28;20266;-78
2023/07/04 04:34:05;;;;;;;3.78;1.63;;;;;;;14.30;85.13;101078.44;4998480;28;20076;-78
2023/07/04 04:36:31;;;;;;;3.92;1.40;;;;;;;14.30;85.20;101083.72;5016243;28;20144;-78
2023/07/04 04:38:59;;;;;;;2.40;0.90;;;;;;;14.32;85.46;101086.28;4991967;28;20038;-78
2023/07/04 04:41:25;;;;;;;2.00;1.15;;;;;;;14.32;85.39;101084.50;4977675;28;20030;-78
2023/07/04 04:43:50;;;;;;;2.53;1.27;;;;;;;14.33;85.31;101090.59;4985846;28;20042;-78
2023/07/04 04:46:16;;;;;;;4.40;1.40;;;;;;;14.34;85.08;101084.41;4996697;28;20325;-78
2023/07/04 04:48:42;;;;;;;2.30;1.33;;;;;;;14.34;85.09;101084.41;4996445;28;20129;-78
2023/07/04 04:51:12;;;;;;;3.15;1.10;;;;;;;14.33;85.25;101086.16;4996322;28;20084;-78
2023/07/04 04:53:39;;;;;;;1.65;0.98;;;;;;;14.33;85.63;101087.97;4995159;28;20088;-78
2023/07/04 04:56:04;;;;;;;2.80;0.95;;;;;;;14.33;85.56;101088.81;4996418;28;20042;-78
2023/07/04 04:58:30;;;;;;;3.78;1.20;;;;;;;14.35;85.72;101086.09;4996522;28;20038;-78
2023/07/04 05:00:56;;;;;;;3.05;1.20;;;;;;;14.35;85.67;101086.09;4994811;28;20490;-78
2023/07/04 05:03:21;;;;;;;2.00;1.17;;;;;;;14.35;85.30;101084.34;4998450;28;20034;-78
2023/07/04 05:05:46;;;;;;;1.65;1.25;;;;;;;14.36;85.56;101086.03;5016211;28;20030;-78
2023/07/04 05:08:12;;;;;;;2.80;1.30;;;;;;;14.36;85.84;101082.53;5016014;28;20478;-78
2023/07/04 05:10:37;;;;;;;2.63;1.20;;;;;;;14.38;85.38;101089.41;4999552;28;20038;-78
2023/07/04 05:13:03;;;;;;;2.45;1.13;;;;;;;14.39;85.65;101088.50;4995983;28;20037;-78
2023/07/04 05:15:28;;;;;;;2.75;1.30;;;;;;;14.39;85.74;101085.03;4996147;28;20042;-78
2023/07/04 05:17:54;;;;;;;2.20;1.02;;;;;;;14.40;85.71;101089.34;4996205;28;20069;-78
2023/07/04 05:20:23;;;;;;;3.03;1.20;;;;;;;14.40;85.76;101092.81;5015237;28;20061;-78
2023/07/04 05:22:49;;;;;;;2.60;1.10;;;;;;;14.42;85.48;101091.91;4997896;28;20037;-78
2023/07/04 05:25:15;;;;;;;3.50;1.30;;;;;;;14.42;85.99;101090.09;5015586;28;20033;-78
2023/07/04 05:27:41;;;;;;;2.58;1.20;;;;;;;14.44;85.67;101096.16;4998294;28;20156;-78
2023/07/04 05:30:08;;;;;;;6.07;1.60;;;;;;;14.45;85.85;101097.03;5015318;28;20041;-78
2023/07/04 05:32:33;;;;;;;3.03;1.52;;;;;;;14.47;85.97;101098.63;5015881;28;20352;-78
2023/07/04 05:34:59;;;;;;;2.25;1.40;;;;;;;14.49;85.86;101098.56;4999519;28;20054;-78
2023/07/04 05:37:25;;;;;;;2.17;1.38;;;;;;;14.49;85.69;101104.66;4995764;28;20038;-78
2023/07/04 05:39:51;;;;;;;4.45;1.33;;;;;;;14.51;85.54;101108.06;4996135;28;20148;-78
2023/07/04 05:42:16;;;;;;;1.55;1.02;;;;;;;14.53;85.69;101108.00;4995895;28;20042;-78
2023/07/04 05:44:42;;;;;;;2.55;1.27;;;;;;;14.55;86.01;101108.75;4995976;28;20038;-78
2023/07/04 05:47:07;;;;;;;3.72;1.30;;;;;;;14.57;85.89;101104.25;4995935;28;20049;-78
2023/07/04 05:49:33;;;;;;;3.33;1.17;;;;;;;14.57;86.13;101104.25;4995855;28;20491;-78
2023/07/04 05:51:58;;;;;;;1.65;1.20;;;;;;;14.59;85.71;101113.84;4995612;28;20042;-78
2023/07/04 05:54:24;;;;;;;7.93;1.48;;;;;;;14.62;85.83;101111.97;4995533;28;20034;-78
2023/07/04 05:56:55;;;;;;;2.90;1.52;;;;;;;14.63;86.12;101119.78;4995607;28;20046;-78
2023/07/04 05:59:21;;;;;;;4.80;1.95;;;;;;;14.63;85.90;101117.16;4995577;28;20064;-78
2023/07/04 06:01:47;;;;;;;4.68;1.80;;;;;;;14.64;85.84;101124.13;4996879;28;20324;-78
2023/07/04 06:04:13;;;;;;;4.00;1.40;;;;;;;14.66;85.90;101118.75;5004228;28;20352;-78
2023/07/04 06:06:41;;;;;;;2.10;1.30;;;;;;;14.66;85.95;101117.00;5002495;28;20037;-78
2023/07/04 06:09:10;;;;;;;5.60;1.40;;;;;;;14.67;85.65;101121.31;5014295;28;20042;-78
2023/07/04 06:11:39;;;;;;;3.85;1.65;;;;;;;14.68;85.85;101115.13;5000156;28;20041;-78
2023/07/04 06:14:06;;;;;;;4.88;1.80;;;;;;;14.71;85.73;101116.75;4999579;28;20070;-77
2023/07/04 06:16:32;;;;;;;5.85;1.90;;;;;;;14.72;85.93;101127.22;4999804;28;20109;-77
2023/07/04 06:18:57;;;;;;;5.25;1.70;;;;;;;14.73;85.73;101130.69;4998959;28;20259;-77
2023/07/04 06:21:24;;;;;;;4.55;1.55;;;;;;;14.76;85.57;101130.53;4998309;28;20107;-77
2023/07/04 06:23:54;;;;;;;3.97;1.55;;;;;;;14.78;85.75;101139.22;4999434;28;20116;-78
2023/07/04 06:26:20;;;;;;;2.13;1.50;;;;;;;14.81;85.80;101132.91;4999575;28;20415;-77
2023/07/04 06:28:46;;;;;;;8.50;2.03;;;;;;;14.82;85.96;101145.16;5000020;28;20165;-78
2023/07/04 06:31:15;;;;;;;2.97;1.38;;;;;;;14.83;85.64;101145.09;4998708;28;20050;-77
2023/07/04 06:33:41;;;;;;;6.18;1.63;;;;;;;14.83;85.68;101149.53;4999769;28;20049;-78
2023/07/04 06:36:11;;;;;;;5.05;1.77;;;;;;;14.83;86.21;101158.28;4998478;28;20204;-78
2023/07/04 06:38:36;;;;;;;6.53;2.08;;;;;;;14.82;86.11;101147.81;4980490;28;20351;-77
2023/07/04 06:41:05;;;;;;;2.47;1.23;;;;;;;14.83;86.06;101158.28;4980599;28;20034;-78
2023/07/04 06:43:32;;;;;;;6.50;1.80;;;;;;;14.82;86.11;101153.91;4998666;28;20446;-78
2023/07/04 06:45:57;;;;;;;3.38;1.10;;;;;;;14.84;86.04;101161.75;4990719;28;20098;-78
2023/07/04 06:48:24;;;;;;;4.20;1.58;;;;;;;14.83;86.03;101160.91;4974032;28;20093;-77
2023/07/04 06:51:04;;;;;;;6.30;1.55;;;;;;;14.85;85.89;101161.69;4987925;28;20332;-78
2023/07/04 06:53:31;;;;;;;10.00;1.80;;;;;;;14.84;85.59;101157.31;4961693;28;20388;-77
2023/07/04 06:56:16;;;;;;;3.30;1.50;;;;;;;14.85;85.94;101148.50;4992871;28;20034;-78
2023/07/04 06:58:45;;;;;;;3.22;1.52;;;;;;;14.87;86.08;101161.59;4997802;28;20034;-78
2023/07/04 07:01:11;;;;;;;6.38;1.67;;;;;;;14.88;85.92;101173.84;4997533;28;20350;-77
2023/07/04 07:03:37;;;;;;;8.13;1.60;;;;;;;14.90;86.00;101162.28;4999404;28;20041;-78
2023/07/04 07:06:05;;;;;;;3.78;1.30;;;;;;;14.93;85.83;101158.63;5017202;28;20056;-78
2023/07/04 07:08:31;;;;;;;6.00;1.73;;;;;;;14.95;85.57;101165.53;5017590;28;20329;-77
2023/07/04 07:11:00;;;;;;;4.10;1.67;;;;;;;14.97;85.56;101168.06;4993765;28;20030;-77
2023/07/04 07:13:26;;;;;;;4.38;1.67;;;;;;;14.99;85.39;101160.94;4992504;28;20096;-78
2023/07/04 07:16:03;;;;;;;13.18;1.80;;;;;;;15.03;85.50;101164.28;4992639;28;20284;-77
2023/07/04 07:18:29;;;;;;;3.88;1.42;;;;;;;15.06;85.26;101166.72;4992102;28;20028;-78
2023/07/04 07:20:58;;;;;;;9.45;1.70;;;;;;;15.08;85.20;101172.75;5003011;28;20381;-77
2023/07/04 07:23:24;;;;;;;4.65;1.50;;;;;;;15.12;84.85;101184.88;5014092;28;20092;-77
2023/07/04 07:25:57;;;;;;;3.75;1.58;;;;;;;15.12;84.55;101177.81;4982278;28;20597;-78
2023/07/04 07:28:27;;;;;;;6.82;1.63;;;;;;;15.14;84.55;101183.84;4989187;28;20038;-78
2023/07/04 07:31:12;;;;;;;4.10;1.38;;;;;;;15.16;84.33;101175.84;4997987;28;20049;-78
2023/07/04 07:33:40;;;;;;;6.97;1.77;;;;;;;15.16;84.37;101192.53;4986877;28;20436;-78
2023/07/04 07:36:12;;;;;;;5.22;1.60;;;;;;;15.18;84.06;101188.97;5008942;28;20042;-78
2023/07/04 07:38:38;;;;;;;7.40;1.73;;;;;;;15.19;83.54;101195.91;4997036;28;20242;-78
2023/07/04 07:41:05;;;;;;;13.35;2.00;;;;;;;15.18;82.49;101188.97;4994285;28;20069;-78
2023/07/04 07:43:31;;;;;;;6.43;1.50;;;;;;;15.18;82.65;101192.44;4981655;28;20270;-77
2023/07/04 07:45:56;;;;;;;3.72;1.40;;;;;;;15.19;82.52;101202.06;4997632;28;20033;-77
2023/07/04 07:48:22;;;;;;;3.78;1.25;;;;;;;15.22;82.77;101201.03;4996677;28;20101;-77
2023/07/04 07:50:47;;;;;;;3.35;1.70;;;;;;;15.22;82.62;101185.22;4996540;28;20320;-78
2023/07/04 07:53:13;;;;;;;4.85;1.75;;;;;;;15.21;82.40;101179.09;5011503;28;20034;-78
2023/07/04 07:55:39;;;;;;;6.75;1.45;;;;;;;15.23;82.15;101200.97;5000556;28;20060;-78
2023/07/04 07:58:05;;;;;;;3.47;1.23;;;;;;;15.23;81.90;101198.31;4976685;28;20221;-78
2023/07/04 08:00:30;;;;;;;2.42;1.23;;;;;;;15.24;82.18;101192.09;4986763;28;20383;-78
2023/07/04 08:02:56;;;;;;;5.82;1.63;;;;;;;15.26;81.94;101198.16;4994082;28;20343;-78
2023/07/04 08:05:21;;;;;;;3.25;1.23;;;;;;;15.29;81.86;101197.13;5004997;28;20495;-78
2023/07/04 08:07:47;;;;;;;4.32;1.40;;;;;;;15.28;81.78;101193.66;4991301;28;20114;-78
2023/07/04 08:10:12;;;;;;;5.45;1.30;;;;;;;15.30;81.92;101199.69;4978715;28;20037;-78
2023/07/04 08:12:37;;;;;;;4.13;1.30;;;;;;;15.31;81.77;101188.19;4996268;28;20053;-78
2023/07/04 08:15:03;;;;;;;2.65;1.48;;;;;;;15.32;81.83;101184.63;4996805;28;20396;-78
2023/07/04 08:17:29;;;;;;;3.58;1.40;;;;;;;15.34;81.83;101200.38;5005876;28;20053;-78
2023/07/04 08:19:54;;;;;;;3.08;1.35;;;;;;;15.34;82.01;101203.84;4996219;28;20038;-78
2023/07/04 08:22:20;;;;;;;3.45;1.38;;;;;;;15.36;81.60;101211.69;4996181;28;20080;-78
2023/07/04 08:24:45;;;;;;;7.38;1.95;;;;;;;15.36;81.78;101215.19;4997259;28;20035;-78
2023/07/04 08:27:11;;;;;;;3.55;1.30;;;;;;;15.39;81.87;101206.25;4995830;28;20041;-78
2023/07/04 08:29:36;;;;;;;3.35;1.60;;;;;;;15.40;81.47;101213.22;4993365;28;20328;-78
2023/07/04 08:32:02;;;;;;;2.25;1.40;;;;;;;15.41;81.67;101204.38;4993976;28;20042;-78
2023/07/04 08:34:27;;;;;;;9.05;2.63;;;;;;;15.45;81.48;101211.19;4996379;28;20038;-78
2023/07/04 08:36:52;;;;;;;3.85;1.60;;;;;;;15.50;81.77;101213.59;4996679;28;20034;-78
2023/07/04 08:39:18;;;;;;;9.57;1.90;;;;;;;15.54;82.22;101220.38;4993965;28;20092;-78
2023/07/04 08:42:03;;;;;;;14.57;2.55;;;;;;;15.58;81.77;101210.50;4995538;28;20367;-78
2023/07/04 08:44:45;;;;;;;4.07;1.77;;;;;;;15.61;81.61;101212.97;4995305;28;20106;-78
2023/07/04 08:47:13;;;;;;;10.00;2.25;;;;;;;15.64;81.33;101218.06;5008586;28;20045;-78
2023/07/04 08:49:58;;;;;;;9.45;1.92;;;;;;;15.66;81.17;101219.72;4995500;28;20065;-78
2023/07/04 08:52:33;;;;;;;4.20;1.20;;;;;;;15.69;80.87;101229.25;4994736;28;20095;-78
2023/07/04 08:54:59;;;;;;;3.75;1.73;;;;;;;15.72;81.28;101227.28;4981323;28;20081;-78
2023/07/04 08:57:37;;;;;;;6.80;2.15;;;;;;;15.74;80.81;101228.06;4994630;28;20030;-78
2023/07/04 09:00:12;;;;;;;6.53;1.77;;;;;;;15.79;79.40;101230.47;4995496;28;20329;-78
2023/07/04 09:02:47;;;;;;;4.07;1.80;;;;;;;15.82;79.46;101237.34;4994231;28;20037;-78
2023/07/04 09:05:39;;;;;;;3.80;1.40;;;;;;;15.83;79.20;101229.34;5001328;28;20114;-78
2023/07/04 09:08:34;;;;;;;8.38;2.45;;;;;;;15.85;79.21;101234.56;5013927;28;20052;-78
2023/07/04 09:11:03;;;;;;;5.72;2.08;;;;;;;15.85;78.25;101234.56;4981671;28;20237;-78
2023/07/04 09:13:35;;;;;;;3.58;1.30;;;;;;;15.85;78.03;101238.03;4993986;28;20058;-78
2023/07/04 09:16:05;;;;;;;5.60;1.85;;;;;;;15.85;78.00;101245.13;4993632;28;20330;-78
2023/07/04 09:18:47;;;;;;;3.70;1.20;;;;;;;15.85;77.95;101240.69;4994505;28;20447;-78
2023/07/04 09:21:15;;;;;;;11.32;1.70;;;;;;;15.86;76.58;101252.97;4994677;28;20105;-78
2023/07/04 09:23:43;;;;;;;6.20;1.70;;;;;;;15.88;76.86;101247.56;4994769;28;20065;-78
2023/07/04 09:26:11;;;;;;;7.10;1.50;;;;;;;15.89;76.42;101244.84;5001250;28;20391;-78
2023/07/04 09:28:41;;;;;;;4.43;2.20;;;;;;;15.91;76.38;101252.69;4978454;28;20033;-78
2023/07/04 09:31:14;;;;;;;5.90;1.88;;;;;;;15.91;76.01;101253.53;4996270;28;20202;-78
2023/07/04 09:33:41;;;;;;;5.25;1.30;;;;;;;15.91;75.20;101253.53;5010211;28;20194;-78
2023/07/04 09:36:09;;;;;;;3.20;1.25;;;;;;;15.91;75.82;101250.03;5002954;28;20034;-78
2023/07/04 09:39:04;;;;;;;5.13;1.60;;;;;;;15.91;75.26;101248.25;4995750;28;20045;-77
2023/07/04 09:41:34;;;;;;;3.08;1.45;;;;;;;15.93;75.36;101250.78;4995214;28;20054;-78
2023/07/04 09:44:28;;;;;;;3.38;1.40;;;;;;;15.92;75.41;101255.25;5014979;28;20026;-78
2023/07/04 09:47:01;;;;;;;4.93;1.77;;;;;;;15.94;75.23;101265.72;5002121;28;20038;-78
2023/07/04 09:49:33;;;;;;;5.47;1.25;;;;;;;15.93;75.20;101262.25;5010496;28;20356;-78
2023/07/04 09:52:04;;;;;;;5.43;1.55;;;;;;;15.95;75.15;101258.63;5013980;28;20391;-78
2023/07/04 09:54:36;;;;;;;3.30;1.50;;;;;;;15.98;75.35;101261.97;5015870;28;20224;-77
2023/07/04 09:57:28;;;;;;;6.40;1.45;;;;;;;15.99;74.17;101278.66;4999357;28;20065;-78
2023/07/04 09:59:54;;;;;;;6.18;1.52;;;;;;;16.01;74.46;101272.38;4991159;28;20048;-78
2023/07/04 10:02:36;;;;;;;5.88;1.67;;;;;;;16.02;74.25;101275.84;4994665;28;20042;-78
2023/07/04 10:05:02;;;;;;;7.15;1.67;;;;;;;16.04;74.43;101285.38;5008122;28;20236;-78
2023/07/04 10:07:27;;;;;;;6.68;1.40;;;;;;;16.05;74.44;101280.97;4993271;28;20034;-78
2023/07/04 10:09:57;;;;;;;2.85;1.33;;;;;;;16.06;74.29;101285.28;4995381;28;20041;-78
2023/07/04 10:12:24;;;;;;;3.47;1.58;;;;;;;16.07;73.76;101284.38;4995006;28;20124;-78
2023/07/04 10:14:57;;;;;;;4.82;1.45;;;;;;;16.06;73.72;101288.81;4995313;28;20360;-78
2023/07/04 10:17:35;;;;;;;2.92;1.30;;;;;;;16.10;73.85;101295.63;4995553;28;20053;-78
2023/07/04 10:20:04;;;;;;;;;;;;;;;16.12;73.30;101287.59;4995758;28;20033;-78
2023/07/04 10:22:38;;;;;;;5.60;1.40;;;;;;;16.14;72.91;101296.28;4995438;28;20164;-78
2023/07/04 10:25:13;;;;;;;4.55;1.80;;;;;;;16.16;72.44;101297.06;4995749;28;20030;-78
2023/07/04 10:27:41;;;;;;;3.83;1.30;;;;;;;16.18;72.06;101289.03;4995324;28;20101;-78
2023/07/04 10:30:11;;;;;;;5.07;1.80;;;;;;;16.20;72.01;101297.72;4994196;28;20073;-78
2023/07/04 10:32:56;;;;;;;4.82;1.60;;;;;;;16.22;72.48;101290.56;4997248;28;20299;-78
2023/07/04 10:35:26;;;;;;;6.55;1.70;;;;;;;16.24;72.75;101288.69;4996623;28;20046;-78
2023/07/04 10:37:56;;;;;;;3.22;1.35;;;;;;;16.24;72.99;101297.44;4994972;28;20072;-78
2023/07/04 10:40:24;;;;;;;3.85;1.27;;;;;;;16.27;72.79;101294.66;4993953;28;20122;-78
2023/07/04 10:42:55;;;;;;;5.07;1.50;;;;;;;16.30;72.61;101288.34;4985490;28;20129;-78
2023/07/04 10:45:23;;;;;;;3.58;1.40;;;;;;;16.31;72.92;101295.31;4992289;28;20042;-78
2023/07/04 10:47:52;;;;;;;3.40;1.20;;;;;;;16.35;72.90;101296.00;4996116;28;20326;-78
2023/07/04 10:50:24;;;;;;;3.65;1.30;;;;;;;16.37;72.81;101295.00;4999591;28;20034;-78
2023/07/04 10:52:49;;;;;;;3.70;1.42;;;;;;;16.39;72.82;101297.50;4999882;28;20026;-78
2023/07/04 10:55:23;;;;;;;5.30;1.40;;;;;;;16.39;72.79;101290.47;4998818;28;20129;-78
2023/07/04 10:58:18;;;;;;;2.03;1.05;;;;;;;16.41;72.56;101304.44;4999105;28;20113;-78
2023/07/04 11:00:47;;;;;;;2.33;1.10;;;;;;;16.43;72.24;101293.78;4999060;28;20038;-78
2023/07/04 11:03:25;;;;;;;2.88;1.30;;;;;;;16.46;71.98;101296.22;4999496;28;20054;-78
2023/07/04 11:05:53;;;;;;;;;;;;;;;16.48;71.39;101303.13;5018608;28;20056;-78
2023/07/04 11:08:21;;;;;;;4.38;1.20;;;;;;;16.50;71.67;101298.59;5018016;28;19917;-78
2023/07/04 11:10:56;;;;;;;3.00;1.42;;;;;;;16.54;71.72;101301.94;4999593;28;20041;-78
2023/07/04 11:13:24;;;;;;;6.68;1.60;;;;;;;16.57;72.02;101301.75;4995909;28;20116;-77
2023/07/04 11:16:03;;;;;;;5.47;1.70;;;;;;;16.60;71.72;101300.72;4981822;28;20123;-78
2023/07/04 11:18:32;;;;;;;4.82;1.70;;;;;;;16.62;70.97;101302.31;4998202;28;20065;-78
2023/07/04 11:21:13;;;;;;;3.55;1.30;;;;;;;16.64;71.01;101304.88;4980482;28;20089;-78
2023/07/04 11:23:49;;;;;;;3.30;1.33;;;;;;;16.65;70.92;101301.31;4998065;28;20441;-78
2023/07/04 11:26:16;;;;;;;7.53;1.48;;;;;;;16.66;70.70;101308.28;4987083;28;20042;-78
2023/07/04 11:28:45;;;;;;;4.03;1.48;;;;;;;16.66;70.74;101303.84;4993718;28;20089;-79
2023/07/04 11:31:17;;;;;;;4.68;1.40;;;;;;;16.67;70.32;101305.53;4972045;28;20062;-78
2023/07/04 11:34:02;;;;;;;4.53;1.23;;;;;;;16.68;70.29;101304.63;4994736;28;20065;-78
2023/07/04 11:36:53;;;;;;;4.55;1.48;;;;;;;16.71;70.42;101311.50;4991149;28;20030;-78